createdAt,value
2018-07-14T04:11:51.540Z,92.30
2018-07-14T04:16:46.890Z,92.10
2018-07-14T04:21:42.471Z,91.40
2018-07-14T04:26:38.177Z,90.90
2018-07-14T04:31:36.022Z,87.20
2018-07-14T04:36:31.025Z,79.80
2018-07-14T04:41:27.106Z,72.40
2018-07-14T04:46:22.287Z,66.50
2018-07-14T04:51:17.629Z,59.90
2018-07-14T04:56:12.929Z,58.60
2018-07-14T05:01:08.357Z,55.90
2018-07-14T05:06:04.624Z,53.50
2018-07-14T05:11:01.265Z,50.70
2018-07-14T05:15:57.847Z,50.10
2018-07-14T05:20:53.170Z,48.90
2018-07-14T05:25:48.377Z,51.20
2018-07-14T05:30:44.365Z,52.70
2018-07-14T05:35:39.570Z,49.70
2018-07-14T05:40:34.849Z,49.70
2018-07-14T05:45:29.837Z,50.90
2018-07-14T05:50:25.266Z,53.80
2018-07-14T05:55:20.471Z,50.20
2018-07-14T06:00:16.050Z,46.20
2018-07-14T06:10:34.825Z,38.80
2018-07-14T06:15:30.262Z,38.20
2018-07-14T06:20:26.288Z,36.50
2018-07-14T06:25:21.594Z,35.20
2018-07-14T06:35:12.191Z,34.00
2018-07-14T06:51:53.296Z,35.80
2018-07-14T06:56:48.739Z,39.00
2018-07-14T07:01:44.236Z,40.30
2018-07-14T07:06:40.001Z,40.80
2018-07-14T07:11:35.555Z,40.20
2018-07-14T07:16:30.868Z,38.20
2018-07-14T07:21:26.604Z,37.10
2018-07-14T07:26:21.888Z,37.90
2018-07-14T07:31:17.431Z,37.00
2018-07-14T07:36:12.934Z,38.50
2018-07-14T07:41:08.846Z,41.70
2018-07-14T07:46:05.578Z,42.80
2018-07-14T07:51:02.326Z,40.80
2018-07-14T07:55:57.623Z,43.00
2018-07-14T08:00:53.451Z,41.80
2018-07-14T08:10:44.442Z,34.00
2018-07-14T08:15:39.875Z,30.90
2018-07-14T08:20:35.298Z,30.80
2018-07-14T08:25:31.289Z,29.10
2018-07-14T08:30:26.823Z,28.20
2018-07-14T08:35:23.215Z,27.60
2018-07-14T08:45:14.259Z,25.20
2018-07-14T08:50:10.838Z,25.90
2018-07-14T08:55:07.648Z,25.60
2018-07-14T09:00:05.012Z,26.10
2018-07-14T09:05:00.658Z,27.80
2018-07-14T09:09:57.734Z,28.40
2018-07-14T09:19:48.168Z,29.00
2018-07-14T09:24:43.694Z,30.00
2018-07-14T09:29:41.241Z,29.90
2018-07-14T09:34:36.509Z,30.10
2018-07-14T09:39:32.166Z,28.10
2018-07-14T09:44:27.840Z,29.50
2018-07-14T09:59:15.244Z,29.50
2018-07-14T10:04:10.769Z,31.20
2018-07-14T10:09:07.139Z,30.10
2018-07-14T10:14:03.422Z,28.90
2018-07-14T10:18:59.766Z,25.40
2018-07-14T10:28:52.767Z,24.10
2018-07-14T10:33:48.545Z,22.60
2018-07-14T10:38:44.340Z,23.90
2018-07-14T10:43:39.815Z,21.90
2018-07-14T10:48:35.452Z,20.80
2018-07-14T10:53:31.105Z,21.00
2018-07-14T10:58:26.575Z,20.50
2018-07-14T11:03:22.038Z,20.60
2018-07-14T11:08:17.530Z,22.10
2018-07-14T11:13:13.001Z,24.10
2018-07-14T11:18:08.527Z,26.90
2018-07-14T11:23:04.568Z,28.50
2018-07-14T11:28:00.230Z,29.60
2018-07-14T11:32:55.918Z,31.80
2018-07-14T11:37:52.248Z,33.10
2018-07-14T11:42:47.746Z,32.70
2018-07-14T11:47:43.848Z,34.90
2018-07-14T11:52:39.458Z,36.10
2018-07-14T11:57:35.878Z,33.70
2018-07-14T12:02:31.545Z,34.70
2018-07-14T12:12:21.825Z,34.40
2018-07-14T12:17:17.627Z,34.70
2018-07-14T12:22:13.120Z,34.50
2018-07-14T12:27:09.182Z,34.70
2018-07-14T12:32:06.006Z,35.60
2018-07-14T12:37:01.584Z,36.90
2018-07-14T12:41:57.503Z,35.00
2018-07-14T12:46:56.018Z,36.80
2018-07-14T12:51:51.421Z,36.50
2018-07-14T12:56:48.059Z,34.90
2018-07-14T13:01:43.746Z,35.40
2018-07-14T13:11:35.079Z,36.30
2018-07-14T13:16:30.619Z,34.80
2018-07-14T13:21:26.798Z,34.90
2018-07-14T13:26:22.737Z,34.00
2018-07-14T13:31:18.134Z,36.20
2018-07-14T13:36:14.333Z,36.20
2018-07-14T13:41:09.713Z,34.60
2018-07-14T13:46:06.649Z,35.60
2018-07-14T13:55:57.693Z,35.20
2018-07-14T14:06:38.195Z,36.20
2018-07-14T14:11:34.622Z,35.70
2018-07-14T14:16:30.177Z,36.50
2018-07-14T14:21:25.605Z,36.40
2018-07-14T14:26:21.221Z,36.00
2018-07-14T14:31:16.583Z,36.00
2018-07-14T14:36:11.932Z,35.10
2018-07-14T14:41:08.194Z,35.00
2018-07-14T14:46:04.867Z,36.50
2018-07-14T14:51:04.446Z,34.90
2018-07-14T14:56:00.544Z,34.00
2018-07-14T15:00:56.848Z,33.70
2018-07-14T15:05:52.282Z,34.90
2018-07-14T15:10:47.797Z,34.40
2018-07-14T15:15:43.440Z,33.80
2018-07-14T15:20:39.377Z,33.40
2018-07-14T15:25:34.822Z,33.10
2018-07-14T15:35:25.338Z,33.40
2018-07-14T15:40:20.876Z,33.60
2018-07-14T15:45:16.487Z,34.20
2018-07-14T15:50:12.241Z,33.60
2018-07-14T15:55:08.678Z,34.20
2018-07-14T16:00:04.796Z,35.00
2018-07-14T16:09:55.445Z,34.10
2018-07-14T16:14:51.265Z,34.50
2018-07-14T16:19:47.157Z,35.70
2018-07-14T16:24:42.439Z,35.20
2018-07-14T16:29:38.767Z,36.30
2018-07-14T16:34:34.405Z,36.20
2018-07-14T16:39:30.363Z,37.20
2018-07-14T16:44:25.909Z,37.10
2018-07-14T16:49:21.670Z,37.20
2018-07-14T16:54:17.944Z,37.40
2018-07-14T16:59:13.469Z,38.00
2018-07-14T17:04:10.069Z,37.20
2018-07-14T17:09:09.932Z,38.30
2018-07-14T17:14:06.521Z,38.40
2018-07-14T17:19:03.028Z,37.90
2018-07-14T17:23:59.085Z,38.10
2018-07-14T17:28:56.010Z,39.30
2018-07-14T17:33:52.109Z,39.30
2018-07-14T17:38:47.739Z,40.10
2018-07-14T17:43:43.324Z,39.80
2018-07-14T17:48:39.069Z,39.50
2018-07-14T17:53:34.670Z,39.70
2018-07-14T17:58:31.088Z,40.30
2018-07-14T18:03:26.694Z,40.70
2018-07-14T18:08:22.274Z,40.70
2018-07-14T18:13:17.657Z,41.30
2018-07-14T18:23:08.689Z,41.80
2018-07-14T18:28:05.352Z,42.60
2018-07-14T18:33:00.733Z,43.00
2018-07-14T18:37:58.269Z,43.90
2018-07-14T18:42:53.734Z,44.20
2018-07-14T18:47:49.110Z,45.10
2018-07-14T18:52:45.192Z,45.70
2018-07-14T18:57:40.568Z,46.10
2018-07-14T19:02:36.614Z,47.00
2018-07-14T19:07:32.313Z,48.10
2018-07-14T19:12:27.954Z,49.30
2018-07-14T19:17:23.409Z,49.90
2018-07-14T19:22:19.271Z,50.50
2018-07-14T19:27:15.067Z,50.50
2018-07-14T19:32:10.677Z,51.80
2018-07-14T19:42:04.921Z,53.80
2018-07-14T19:47:00.529Z,52.80
2018-07-14T19:51:55.833Z,53.40
2018-07-14T19:56:51.508Z,53.90
2018-07-14T20:01:47.067Z,55.60
2018-07-14T20:06:44.534Z,56.30
2018-07-14T20:11:40.204Z,58.80
2018-07-14T20:16:35.900Z,59.70
2018-07-14T20:21:31.314Z,58.70
2018-07-14T20:26:26.730Z,58.80
2018-07-14T20:31:22.157Z,59.30
2018-07-14T20:36:17.729Z,61.60
2018-07-14T20:41:13.420Z,62.90
2018-07-14T20:46:11.212Z,65.00
2018-07-14T20:51:06.854Z,65.30
2018-07-14T20:56:03.864Z,65.90
2018-07-14T21:01:00.010Z,67.30
2018-07-14T21:05:55.900Z,66.80
2018-07-14T21:10:51.912Z,67.40
2018-07-14T21:15:47.437Z,65.80
2018-07-14T21:20:43.088Z,67.00
2018-07-14T21:25:39.065Z,68.70
2018-07-14T21:30:38.601Z,66.80
2018-07-14T21:35:34.136Z,66.80
2018-07-14T21:40:29.526Z,64.60
2018-07-14T21:45:26.225Z,63.70
2018-07-14T21:50:21.962Z,63.70
2018-07-14T21:55:17.367Z,66.00
2018-07-14T22:00:24.037Z,67.70
2018-07-14T22:05:20.346Z,68.20
2018-07-14T22:10:16.696Z,68.40
2018-07-14T22:15:12.720Z,69.70
2018-07-14T22:20:10.185Z,71.80
2018-07-14T22:25:06.512Z,71.80
2018-07-14T22:30:02.487Z,73.80
2018-07-14T22:34:58.322Z,74.40
2018-07-14T22:39:54.235Z,74.50
2018-07-14T22:44:49.604Z,75.20
2018-07-14T22:54:40.963Z,76.00
2018-07-14T22:59:36.441Z,76.70
2018-07-14T23:04:31.663Z,75.50
2018-07-14T23:09:27.439Z,76.00
2018-07-14T23:14:23.007Z,77.70
2018-07-14T23:19:19.122Z,78.00
2018-07-14T23:24:14.860Z,78.50
2018-07-14T23:29:10.417Z,78.80
2018-07-14T23:34:06.761Z,78.60
2018-07-14T23:39:02.558Z,79.00
2018-07-14T23:43:57.842Z,80.10
2018-07-14T23:48:53.750Z,80.20
2018-07-14T23:53:49.097Z,81.20
